sensor_id;sensor_type;location;lat;lon;timestamp;pressure;altitude;pressure_sealevel;temperature;humidity
69316;BME280;56445;43.552;5.034;2023-08-31T08:22:02;101419.34;;;37.09;20.10
69316;BME280;56445;43.552;5.034;2023-08-31T08:25:16;101428.75;;;37.17;20.07
69316;BME280;56445;43.552;5.034;2023-08-31T08:49:12;101436.53;;;37.77;20.40
69316;BME280;56445;43.552;5.034;2023-08-31T08:51:48;101414.06;;;37.80;20.00
69316;BME280;56445;43.552;5.034;2023-08-31T08:54:20;101441.00;;;38.08;19.75
69316;BME280;56445;43.552;5.034;2023-08-31T08:57:06;101442.72;;;38.16;20.17
69316;BME280;56445;43.552;5.034;2023-08-31T08:59:43;101450.47;;;38.26;19.81
69316;BME280;56445;43.552;5.034;2023-08-31T09:02:19;101420.97;;;38.17;19.68
69316;BME280;56445;43.552;5.034;2023-08-31T09:04:51;101451.50;;;38.45;20.26
69316;BME280;56445;43.552;5.034;2023-08-31T09:07:24;101418.00;;;38.36;20.03
69316;BME280;56445;43.552;5.034;2023-08-31T09:10:46;101432.78;;;38.60;20.34
69316;BME280;56445;43.552;5.034;2023-08-31T09:13:52;101427.19;;;38.63;19.87
69316;BME280;56445;43.552;5.034;2023-08-31T09:17:01;101444.78;;;38.91;20.06
69316;BME280;56445;43.552;5.034;2023-08-31T09:19:58;101424.97;;;38.83;19.93
69316;BME280;56445;43.552;5.034;2023-08-31T09:22:45;101452.69;;;39.15;19.98
69316;BME280;56445;43.552;5.034;2023-08-31T09:25:33;101452.38;;;39.27;19.80
69316;BME280;56445;43.552;5.034;2023-08-31T09:28:29;101455.78;;;39.44;20.19
69316;BME280;56445;43.552;5.034;2023-08-31T09:31:32;101453.88;;;39.62;19.91
69316;BME280;56445;43.552;5.034;2023-08-31T09:34:39;101454.00;;;39.84;19.70
69316;BME280;56445;43.552;5.034;2023-08-31T09:37:21;101433.44;;;39.87;19.55
69316;BME280;56445;43.552;5.034;2023-08-31T09:40:14;101451.38;;;40.20;19.71
69316;BME280;56445;43.552;5.034;2023-08-31T09:43:26;101445.00;;;40.44;19.79
69316;BME280;56445;43.552;5.034;2023-08-31T09:46:19;101451.59;;;40.77;19.67
69316;BME280;56445;43.552;5.034;2023-08-31T09:49:13;101446.75;;;41.03;19.94
69316;BME280;56445;43.552;5.034;2023-08-31T09:52:31;101453.63;;;41.56;19.88
69316;BME280;56445;43.552;5.034;2023-08-31T09:55:49;101462.47;;;41.97;19.81
69316;BME280;56445;43.552;5.034;2023-08-31T09:58:32;101458.69;;;42.29;19.66
69316;BME280;56445;43.552;5.034;2023-08-31T10:01:15;101446.03;;;42.55;19.64
69316;BME280;56445;43.552;5.034;2023-08-31T10:03:59;101444.28;;;42.76;19.77
69316;BME280;56445;43.552;5.034;2023-08-31T10:06:43;101421.50;;;42.90;19.46
69316;BME280;56445;43.552;5.034;2023-08-31T10:13:19;101432.69;;;43.53;19.48
69316;BME280;56445;43.552;5.034;2023-08-31T10:19:09;101424.78;;;43.72;19.18
69316;BME280;56445;43.552;5.034;2023-08-31T10:21:53;101439.13;;;43.95;19.27
69316;BME280;56445;43.552;5.034;2023-08-31T10:40:07;101435.72;;;44.69;19.15
69316;BME280;56445;43.552;5.034;2023-08-31T10:42:45;101446.56;;;44.78;18.82
69316;BME280;56445;43.552;5.034;2023-08-31T10:45:14;101442.03;;;44.81;19.09
69316;BME280;56445;43.552;5.034;2023-08-31T10:47:41;101407.31;;;44.66;19.01
69316;BME280;56445;43.552;5.034;2023-08-31T10:53:10;101403.06;;;44.78;18.88
69316;BME280;56445;43.552;5.034;2023-08-31T10:55:52;101434.03;;;44.99;18.79
69316;BME280;56445;43.552;5.034;2023-08-31T10:58:31;101403.28;;;44.87;18.93
69316;BME280;56445;43.552;5.034;2023-08-31T11:01:04;101426.19;;;45.07;18.76
69316;BME280;56445;43.552;5.034;2023-08-31T11:03:32;101409.47;;;45.09;18.84
69316;BME280;56445;43.552;5.034;2023-08-31T11:06:03;101409.69;;;45.18;18.59
69316;BME280;56445;43.552;5.034;2023-08-31T11:08:39;101396.03;;;45.09;18.79
69316;BME280;56445;43.552;5.034;2023-08-31T11:11:19;101434.66;;;45.34;18.77
69316;BME280;56445;43.552;5.034;2023-08-31T11:13:48;101435.38;;;45.38;18.71
69316;BME280;56445;43.552;5.034;2023-08-31T11:16:24;101424.38;;;45.40;18.64
69316;BME280;56445;43.552;5.034;2023-08-31T11:19:22;101381.88;;;45.26;18.67
69316;BME280;56445;43.552;5.034;2023-08-31T11:22:27;101418.97;;;45.46;18.63
69316;BME280;56445;43.552;5.034;2023-08-31T11:24:56;101409.84;;;45.55;18.59
69316;BME280;56445;43.552;5.034;2023-08-31T11:31:07;101414.34;;;45.76;18.56
69316;BME280;56445;43.552;5.034;2023-08-31T11:40:18;101412.06;;;46.07;18.30
69316;BME280;56445;43.552;5.034;2023-08-31T11:51:55;101386.75;;;46.09;18.18
69316;BME280;56445;43.552;5.034;2023-08-31T11:54:44;101415.06;;;46.20;18.17
69316;BME280;56445;43.552;5.034;2023-08-31T13:18:24;101369.66;;;47.82;17.14
69316;BME280;56445;43.552;5.034;2023-08-31T13:20:53;101382.19;;;48.01;16.94
69316;BME280;56445;43.552;5.034;2023-08-31T13:23:21;101365.38;;;48.03;17.09
69316;BME280;56445;43.552;5.034;2023-08-31T13:25:49;101354.16;;;48.09;17.35
69316;BME280;56445;43.552;5.034;2023-08-31T13:28:22;101364.66;;;48.12;16.97
69316;BME280;56445;43.552;5.034;2023-08-31T13:30:56;101349.00;;;48.04;17.20
69316;BME280;56445;43.552;5.034;2023-08-31T13:33:54;101373.13;;;48.16;17.06
69316;BME280;56445;43.552;5.034;2023-08-31T13:37:05;101358.50;;;48.14;17.13
69316;BME280;56445;43.552;5.034;2023-08-31T13:39:34;101358.97;;;48.25;17.20
69316;BME280;56445;43.552;5.034;2023-08-31T13:42:03;101368.81;;;48.37;17.03
69316;BME280;56445;43.552;5.034;2023-08-31T13:44:30;101391.00;;;48.45;17.37
69316;BME280;56445;43.552;5.034;2023-08-31T13:46:58;101351.50;;;48.28;17.28
69316;BME280;56445;43.552;5.034;2023-08-31T13:49:25;101391.13;;;48.42;16.89
69316;BME280;56445;43.552;5.034;2023-08-31T13:51:52;101351.72;;;48.20;17.09
69316;BME280;56445;43.552;5.034;2023-08-31T13:54:22;101381.38;;;48.26;16.83
69316;BME280;56445;43.552;5.034;2023-08-31T13:56:49;101368.81;;;48.11;17.13
69316;BME280;56445;43.552;5.034;2023-08-31T13:59:18;101354.03;;;48.00;16.90
69316;BME280;56445;43.552;5.034;2023-08-31T14:01:45;101373.47;;;48.05;16.82
69316;BME280;56445;43.552;5.034;2023-08-31T14:04:12;101356.72;;;47.91;17.15
69316;BME280;56445;43.552;5.034;2023-08-31T14:06:40;101375.66;;;48.14;17.05
69316;BME280;56445;43.552;5.034;2023-08-31T14:09:07;101369.72;;;48.21;16.63
69316;BME280;56445;43.552;5.034;2023-08-31T14:11:35;101381.03;;;48.24;16.89
69316;BME280;56445;43.552;5.034;2023-08-31T14:14:04;101355.13;;;47.90;16.45
69316;BME280;56445;43.552;5.034;2023-08-31T14:16:38;101374.41;;;48.02;17.02
69316;BME280;56445;43.552;5.034;2023-08-31T14:19:06;101370.50;;;47.96;16.72
69316;BME280;56445;43.552;5.034;2023-08-31T14:21:33;101376.22;;;47.96;16.77
69316;BME280;56445;43.552;5.034;2023-08-31T14:24:00;101348.03;;;47.81;16.64
69316;BME280;56445;43.552;5.034;2023-08-31T14:26:27;101359.34;;;47.72;16.81
69316;BME280;56445;43.552;5.034;2023-08-31T14:28:55;101352.50;;;47.53;17.13
69316;BME280;56445;43.552;5.034;2023-08-31T14:31:22;101358.69;;;47.52;16.78
69316;BME280;56445;43.552;5.034;2023-08-31T14:33:49;101361.88;;;47.54;16.76
69316;BME280;56445;43.552;5.034;2023-08-31T14:36:18;101366.63;;;47.60;16.74
69316;BME280;56445;43.552;5.034;2023-08-31T14:38:46;101371.72;;;47.53;16.73
69316;BME280;56445;43.552;5.034;2023-08-31T14:41:13;101334.94;;;47.25;16.89
69316;BME280;56445;43.552;5.034;2023-08-31T14:43:40;101339.53;;;47.06;16.81
69316;BME280;56445;43.552;5.034;2023-08-31T14:46:07;101372.38;;;46.98;16.70
69316;BME280;56445;43.552;5.034;2023-08-31T14:48:35;101357.97;;;46.56;16.62
69316;BME280;56445;43.552;5.034;2023-08-31T14:51:02;101359.59;;;46.21;16.14
69316;BME280;56445;43.552;5.034;2023-08-31T14:53:30;101371.94;;;45.98;16.55
69316;BME280;56445;43.552;5.034;2023-08-31T14:55:57;101374.13;;;45.70;16.64
69316;BME280;56445;43.552;5.034;2023-08-31T14:58:24;101385.81;;;45.56;16.71
69316;BME280;56445;43.552;5.034;2023-08-31T15:00:55;101360.66;;;45.30;16.64
69316;BME280;56445;43.552;5.034;2023-08-31T15:03:23;101379.75;;;45.53;16.60
69316;BME280;56445;43.552;5.034;2023-08-31T15:05:51;101376.81;;;45.57;16.79
69316;BME280;56445;43.552;5.034;2023-08-31T15:08:21;101382.94;;;45.56;16.75
69316;BME280;56445;43.552;5.034;2023-08-31T15:10:48;101361.25;;;45.42;16.58
69316;BME280;56445;43.552;5.034;2023-08-31T15:13:17;101374.03;;;45.33;16.66
69316;BME280;56445;43.552;5.034;2023-08-31T15:15:46;101368.28;;;45.13;16.27
69316;BME280;56445;43.552;5.034;2023-08-31T15:18:13;101381.41;;;45.07;16.67
69316;BME280;56445;43.552;5.034;2023-08-31T15:20:43;101366.53;;;44.72;16.50
69316;BME280;56445;43.552;5.034;2023-08-31T15:23:11;101371.16;;;44.63;16.57
69316;BME280;56445;43.552;5.034;2023-08-31T15:25:38;101344.44;;;44.29;16.30
69316;BME280;56445;43.552;5.034;2023-08-31T15:28:05;101364.16;;;44.17;16.44
69316;BME280;56445;43.552;5.034;2023-08-31T15:30:33;101351.75;;;44.00;16.50
69316;BME280;56445;43.552;5.034;2023-08-31T15:33:04;101379.34;;;44.03;16.58
69316;BME280;56445;43.552;5.034;2023-08-31T15:35:32;101344.38;;;43.75;16.41
69316;BME280;56445;43.552;5.034;2023-08-31T15:37:59;101371.84;;;43.85;16.74
69316;BME280;56445;43.552;5.034;2023-08-31T15:40:27;101345.59;;;43.74;16.27
69316;BME280;56445;43.552;5.034;2023-08-31T15:42:54;101366.91;;;43.89;16.70
69316;BME280;56445;43.552;5.034;2023-08-31T15:45:21;101370.22;;;43.84;16.72
69316;BME280;56445;43.552;5.034;2023-08-31T15:47:48;101368.25;;;43.81;16.57
69316;BME280;56445;43.552;5.034;2023-08-31T15:50:16;101361.59;;;43.61;16.76
69316;BME280;56445;43.552;5.034;2023-08-31T15:52:43;101355.47;;;43.62;16.33
69316;BME280;56445;43.552;5.034;2023-08-31T15:55:10;101351.91;;;43.54;16.61
69316;BME280;56445;43.552;5.034;2023-08-31T15:57:37;101371.66;;;43.65;16.40
69316;BME280;56445;43.552;5.034;2023-08-31T16:00:07;101371.31;;;43.60;16.30
69316;BME280;56445;43.552;5.034;2023-08-31T16:02:38;101337.56;;;43.31;16.58
69316;BME280;56445;43.552;5.034;2023-08-31T16:05:06;101379.59;;;43.47;16.62
69316;BME280;56445;43.552;5.034;2023-08-31T16:07:34;101374.09;;;43.29;16.59
69316;BME280;56445;43.552;5.034;2023-08-31T16:10:02;101375.75;;;43.23;16.64
69316;BME280;56445;43.552;5.034;2023-08-31T16:12:31;101372.63;;;43.13;16.30
69316;BME280;56445;43.552;5.034;2023-08-31T16:14:58;101361.38;;;42.99;16.80
69316;BME280;56445;43.552;5.034;2023-08-31T16:17:25;101375.13;;;43.04;16.56
69316;BME280;56445;43.552;5.034;2023-08-31T16:19:53;101358.66;;;42.85;16.67
69316;BME280;56445;43.552;5.034;2023-08-31T16:22:23;101364.34;;;42.88;16.35
69316;BME280;56445;43.552;5.034;2023-08-31T16:24:50;101384.56;;;42.94;16.56
69316;BME280;56445;43.552;5.034;2023-08-31T16:27:17;101382.56;;;42.91;16.17
69316;BME280;56445;43.552;5.034;2023-08-31T16:29:44;101360.00;;;42.69;16.43
69316;BME280;56445;43.552;5.034;2023-08-31T16:32:17;101384.59;;;42.83;16.17
69316;BME280;56445;43.552;5.034;2023-08-31T16:34:44;101353.97;;;42.64;16.30
69316;BME280;56445;43.552;5.034;2023-08-31T16:37:11;101387.16;;;42.70;16.32
69316;BME280;56445;43.552;5.034;2023-08-31T16:39:39;101386.38;;;42.66;16.44
69316;BME280;56445;43.552;5.034;2023-08-31T16:42:06;101380.34;;;42.61;16.66
69316;BME280;56445;43.552;5.034;2023-08-31T16:44:33;101376.34;;;42.54;16.52
69316;BME280;56445;43.552;5.034;2023-08-31T16:47:00;101382.44;;;42.49;16.59
69316;BME280;56445;43.552;5.034;2023-08-31T16:49:30;101348.97;;;42.23;16.43
69316;BME280;56445;43.552;5.034;2023-08-31T16:51:57;101381.31;;;42.32;16.27
69316;BME280;56445;43.552;5.034;2023-08-31T16:54:25;101361.94;;;42.20;16.43
69316;BME280;56445;43.552;5.034;2023-08-31T16:56:52;101365.22;;;42.15;16.71
69316;BME280;56445;43.552;5.034;2023-08-31T16:59:22;101379.34;;;42.22;16.69
69316;BME280;56445;43.552;5.034;2023-08-31T17:01:49;101383.84;;;42.16;16.23
69316;BME280;56445;43.552;5.034;2023-08-31T17:04:17;101369.34;;;42.03;16.45
69316;BME280;56445;43.552;5.034;2023-08-31T17:06:44;101381.06;;;42.05;16.44
69316;BME280;56445;43.552;5.034;2023-08-31T17:09:11;101387.97;;;41.97;16.56
69316;BME280;56445;43.552;5.034;2023-08-31T17:11:38;101351.22;;;41.72;16.24
69316;BME280;56445;43.552;5.034;2023-08-31T17:14:05;101388.41;;;41.88;16.59
69316;BME280;56445;43.552;5.034;2023-08-31T17:16:33;101390.44;;;41.84;16.43
69316;BME280;56445;43.552;5.034;2023-08-31T17:19:00;101389.25;;;41.81;16.24
69316;BME280;56445;43.552;5.034;2023-08-31T17:21:27;101360.97;;;41.64;16.50
69316;BME280;56445;43.552;5.034;2023-08-31T17:23:54;101372.72;;;41.62;16.76
69316;BME280;56445;43.552;5.034;2023-08-31T17:26:24;101383.19;;;41.72;16.42
69316;BME280;56445;43.552;5.034;2023-08-31T17:28:51;101365.03;;;41.55;16.37
69316;BME280;56445;43.552;5.034;2023-08-31T17:31:19;101362.22;;;41.48;16.48
69316;BME280;56445;43.552;5.034;2023-08-31T17:33:47;101374.34;;;41.52;16.40
69316;BME280;56445;43.552;5.034;2023-08-31T17:36:18;101373.94;;;41.50;16.59
69316;BME280;56445;43.552;5.034;2023-08-31T17:38:46;101380.81;;;41.49;16.51
69316;BME280;56445;43.552;5.034;2023-08-31T17:41:14;101391.34;;;41.45;16.53
69316;BME280;56445;43.552;5.034;2023-08-31T17:43:45;101398.63;;;41.39;16.38
69316;BME280;56445;43.552;5.034;2023-08-31T17:46:36;101396.22;;;41.34;16.54
69316;BME280;56445;43.552;5.034;2023-08-31T17:49:23;101402.69;;;41.31;16.59
69316;BME280;56445;43.552;5.034;2023-08-31T17:52:22;101375.19;;;41.13;16.62
69316;BME280;56445;43.552;5.034;2023-08-31T17:55:35;101385.69;;;41.13;16.42
69316;BME280;56445;43.552;5.034;2023-08-31T17:59:04;101402.28;;;41.11;16.52
69316;BME280;56445;43.552;5.034;2023-08-31T18:02:00;101413.59;;;41.03;16.16
69316;BME280;56445;43.552;5.034;2023-08-31T18:04:38;101422.09;;;41.03;16.47
69316;BME280;56445;43.552;5.034;2023-08-31T18:07:11;101418.06;;;41.01;16.66
69316;BME280;56445;43.552;5.034;2023-08-31T18:09:57;101426.53;;;40.97;16.30
69316;BME280;56445;43.552;5.034;2023-08-31T18:12:40;101406.34;;;40.85;16.64
69316;BME280;56445;43.552;5.034;2023-08-31T18:15:27;101435.03;;;40.87;16.46
69316;BME280;56445;43.552;5.034;2023-08-31T18:21:05;101445.94;;;40.77;16.45
69316;BME280;56445;43.552;5.034;2023-08-31T18:24:01;101447.91;;;40.73;16.69
69316;BME280;56445;43.552;5.034;2023-08-31T18:26:37;101431.72;;;40.59;16.68
69316;BME280;56445;43.552;5.034;2023-08-31T18:29:13;101447.50;;;40.60;16.57
69316;BME280;56445;43.552;5.034;2023-08-31T18:31:58;101452.34;;;40.53;16.39
69316;BME280;56445;43.552;5.034;2023-08-31T18:34:25;101421.50;;;40.26;16.61
69316;BME280;56445;43.552;5.034;2023-08-31T18:37:02;101449.03;;;40.40;16.62
69316;BME280;56445;43.552;5.034;2023-08-31T18:39:33;101421.84;;;40.10;16.63
69316;BME280;56445;43.552;5.034;2023-08-31T18:42:06;101444.84;;;40.09;16.71
69316;BME280;56445;43.552;5.034;2023-08-31T18:47:21;101457.38;;;40.04;16.82
69316;BME280;56445;43.552;5.034;2023-08-31T18:49:58;101441.94;;;39.87;16.71
69316;BME280;56445;43.552;5.034;2023-08-31T18:52:38;101456.41;;;39.82;16.92
69316;BME280;56445;43.552;5.034;2023-08-31T18:55:08;101443.41;;;39.66;16.62
69316;BME280;56445;43.552;5.034;2023-08-31T18:57:43;101483.03;;;39.81;16.78
69316;BME280;56445;43.552;5.034;2023-08-31T19:00:18;101468.44;;;39.68;16.73
69316;BME280;56445;43.552;5.034;2023-08-31T19:02:51;101489.38;;;39.67;16.97
69316;BME280;56445;43.552;5.034;2023-08-31T19:05:23;101476.81;;;39.57;16.91
69316;BME280;56445;43.552;5.034;2023-08-31T19:07:54;101469.06;;;39.43;16.62
69316;BME280;56445;43.552;5.034;2023-08-31T19:10:26;101498.16;;;39.51;17.16
69316;BME280;56445;43.552;5.034;2023-08-31T19:13:09;101500.16;;;39.47;17.27
69316;BME280;56445;43.552;5.034;2023-08-31T19:15:52;101498.06;;;39.40;17.11
69316;BME280;56445;43.552;5.034;2023-08-31T19:18:42;101504.84;;;39.36;17.13
69316;BME280;56445;43.552;5.034;2023-08-31T19:21:35;101482.16;;;39.21;17.35
69316;BME280;56445;43.552;5.034;2023-08-31T19:24:05;101507.63;;;39.29;17.09
69316;BME280;56445;43.552;5.034;2023-08-31T19:26:52;101509.19;;;39.26;16.76
69316;BME280;56445;43.552;5.034;2023-08-31T19:29:53;101519.22;;;39.20;17.13
69316;BME280;56445;43.552;5.034;2023-08-31T19:32:43;101525.25;;;39.15;16.98
69316;BME280;56445;43.552;5.034;2023-08-31T19:35:17;101528.03;;;39.11;17.19
69316;BME280;56445;43.552;5.034;2023-08-31T19:38:18;101540.06;;;39.08;17.29
69316;BME280;56445;43.552;5.034;2023-08-31T19:41:03;101547.31;;;39.05;16.97
69316;BME280;56445;43.552;5.034;2023-08-31T19:43:59;101551.72;;;39.03;17.23
69316;BME280;56445;43.552;5.034;2023-08-31T19:46:30;101546.03;;;38.99;17.14
69316;BME280;56445;43.552;5.034;2023-08-31T19:49:03;101522.03;;;38.79;17.68
69316;BME280;56445;43.552;5.034;2023-08-31T19:51:49;101559.66;;;38.94;17.49
69316;BME280;56445;43.552;5.034;2023-08-31T19:54:25;101561.25;;;38.91;17.42
69316;BME280;56445;43.552;5.034;2023-08-31T19:56:57;101568.47;;;38.88;17.71
69316;BME280;56445;43.552;5.034;2023-08-31T19:59:28;101573.28;;;38.88;17.55
69316;BME280;56445;43.552;5.034;2023-08-31T20:02:09;101541.19;;;38.66;17.61
69316;BME280;56445;43.552;5.034;2023-08-31T20:04:45;101555.31;;;38.66;17.49
69316;BME280;56445;43.552;5.034;2023-08-31T20:07:22;101573.97;;;38.78;17.24
69316;BME280;56445;43.552;5.034;2023-08-31T20:09:57;101582.38;;;38.74;17.37
69316;BME280;56445;43.552;5.034;2023-08-31T20:12:27;101548.66;;;38.51;17.52
69316;BME280;56445;43.552;5.034;2023-08-31T20:15:00;101577.75;;;38.59;17.55
69316;BME280;56445;43.552;5.034;2023-08-31T20:17:51;101594.72;;;38.62;17.75
69316;BME280;56445;43.552;5.034;2023-08-31T20:20:27;101594.31;;;38.60;17.64
69316;BME280;56445;43.552;5.034;2023-08-31T20:23:11;101585.78;;;38.57;17.94
69316;BME280;56445;43.552;5.034;2023-08-31T20:25:50;101582.50;;;38.51;17.93
69316;BME280;56445;43.552;5.034;2023-08-31T20:28:26;101552.41;;;38.32;17.66
69316;BME280;56445;43.552;5.034;2023-08-31T20:31:02;101590.56;;;38.53;17.88
69316;BME280;56445;43.552;5.034;2023-08-31T20:33:47;101588.13;;;38.51;17.64
69316;BME280;56445;43.552;5.034;2023-08-31T20:36:38;101552.75;;;38.27;17.69
69316;BME280;56445;43.552;5.034;2023-08-31T20:39:07;101602.16;;;38.47;17.75
69316;BME280;56445;43.552;5.034;2023-08-31T20:41:41;101604.56;;;38.45;17.81
69316;BME280;56445;43.552;5.034;2023-08-31T20:44:15;101602.13;;;38.44;17.76
69316;BME280;56445;43.552;5.034;2023-08-31T20:46:47;101605.31;;;38.42;17.76
69316;BME280;56445;43.552;5.034;2023-08-31T20:49:24;101593.03;;;38.27;18.07
69316;BME280;56445;43.552;5.034;2023-08-31T20:52:00;101610.09;;;38.38;17.85
69316;BME280;56445;43.552;5.034;2023-08-31T20:54:50;101617.72;;;38.38;17.85
69316;BME280;56445;43.552;5.034;2023-08-31T20:57:33;101579.13;;;38.15;18.30
69316;BME280;56445;43.552;5.034;2023-08-31T21:00:08;101602.66;;;38.26;18.12
69316;BME280;56445;43.552;5.034;2023-08-31T21:03:20;101581.53;;;38.13;18.00
69316;BME280;56445;43.552;5.034;2023-08-31T21:06:00;101603.81;;;38.22;18.12
69316;BME280;56445;43.552;5.034;2023-08-31T21:08:50;101611.50;;;38.25;17.91
69316;BME280;56445;43.552;5.034;2023-08-31T21:11:38;101617.91;;;38.22;18.13
69316;BME280;56445;43.552;5.034;2023-08-31T21:14:23;101619.84;;;38.18;18.42
69316;BME280;56445;43.552;5.034;2023-08-31T21:17:03;101626.25;;;38.15;18.34
69316;BME280;56445;43.552;5.034;2023-08-31T21:19:43;101595.66;;;37.90;18.58
69316;BME280;56445;43.552;5.034;2023-08-31T21:22:31;101600.00;;;37.87;18.50
69316;BME280;56445;43.552;5.034;2023-08-31T21:25:01;101632.06;;;38.02;18.13
69316;BME280;56445;43.552;5.034;2023-08-31T21:27:42;101633.63;;;38.00;18.59
69316;BME280;56445;43.552;5.034;2023-08-31T21:30:32;101633.63;;;38.00;18.31
69316;BME280;56445;43.552;5.034;2023-08-31T21:33:19;101616.88;;;37.84;18.29
69316;BME280;56445;43.552;5.034;2023-08-31T21:35:47;101609.91;;;37.78;18.79
69316;BME280;56445;43.552;5.034;2023-08-31T21:38:30;101639.94;;;37.93;18.92
69316;BME280;56445;43.552;5.034;2023-08-31T21:41:05;101637.06;;;37.89;18.62
69316;BME280;56445;43.552;5.034;2023-08-31T21:46:45;101629.63;;;37.78;18.66
69316;BME280;56445;43.552;5.034;2023-08-31T21:49:20;101595.41;;;37.53;18.56
69316;BME280;56445;43.552;5.034;2023-08-31T21:51:56;101633.50;;;37.69;18.93
69316;BME280;56445;43.552;5.034;2023-08-31T21:54:40;101600.50;;;37.47;18.76
69316;BME280;56445;43.552;5.034;2023-08-31T21:57:16;101628.50;;;37.59;18.86
69316;BME280;56445;43.552;5.034;2023-08-31T21:59:52;101613.28;;;37.41;18.46
69316;BME280;56445;43.552;5.034;2023-08-31T22:02:49;101641.25;;;37.53;18.89
69316;BME280;56445;43.552;5.034;2023-08-31T22:05:19;101624.66;;;37.48;18.62
69316;BME280;56445;43.552;5.034;2023-08-31T22:07:51;101614.34;;;37.33;18.96
69316;BME280;56445;43.552;5.034;2023-08-31T22:10:25;101628.22;;;37.45;18.62
69316;BME280;56445;43.552;5.034;2023-08-31T22:13:11;101628.97;;;37.42;19.00
69316;BME280;56445;43.552;5.034;2023-08-31T22:16:12;101626.31;;;37.29;19.04
69316;BME280;56445;43.552;5.034;2023-08-31T23:13:30;101578.06;;;36.69;19.59
69316;BME280;56445;43.552;5.034;2023-08-31T23:16:30;101626.75;;;36.92;19.29
69316;BME280;56445;43.552;5.034;2023-08-31T23:19:02;101623.50;;;36.90;19.16
69316;BME280;56445;43.552;5.034;2023-08-31T23:21:44;101606.06;;;36.81;19.15
69316;BME280;56445;43.552;5.034;2023-08-31T23:24:39;101597.00;;;36.72;19.53
69316;BME280;56445;43.552;5.034;2023-08-31T23:27:08;101594.47;;;36.67;19.37
69316;BME280;56445;43.552;5.034;2023-08-31T23:29:40;101598.63;;;36.73;19.14
69316;BME280;56445;43.552;5.034;2023-08-31T23:32:20;101594.94;;;36.69;19.55
69316;BME280;56445;43.552;5.034;2023-08-31T23:34:49;101613.22;;;36.79;19.41
